Cuneyt Solakoglu — TCTN4 — position and weather

sailwx.info

Track history (hours):
 
Tides and Currents Weather Stations Pressure Air Temp Water Temp Dewpoint Dewpoint Depression Visibility Wind Speed Wind Dir Waves Ship Positions

Cuneyt Solakoglu

Last reported at 2014-Nov-19 16:17 UTC. Time now 2014-Nov-21 02:37 UTC.
Position N 37°46' E 024°33'.

Length 193 m; draft 6.3 m.

Type: Ship (hazmat cat A). MMSI: 271002676.

Date/timePositionNaut miles runAvg speedWind from/ knotsBaromVisibWave heightAir tempDewpointWater temp
2014-Nov-19 16:17N 37°46' E 024°33'1520.2
2014-Nov-19 15:34N 37°33' E 024°24'2120.6
2014-Nov-19 14:33N 37°17' E 024°08'2119.9
2014-Nov-19 13:30N 37°00' E 023°52'1919.8
2014-Nov-19 12:34N 36°45' E 023°39'3919.1
2014-Nov-19 10:32N 36°25' E 022°58'2419.6
2014-Nov-19 09:19N 36°21' E 022°29'  
2014-Nov-15 16:18N 36°37' E 023°22'1520.1
2014-Nov-15 15:33N 36°50' E 023°32'2319.8
2014-Nov-15 14:24N 37°09' E 023°47'1720.2
2014-Nov-15 13:33N 37°23' E 023°60'3020.4
2014-Nov-15 12:04N 37°47' E 024°23'1020.3
2014-Nov-15 11:33N 37°55' E 024°32'2220.5
2014-Nov-15 10:29N 38°13' E 024°48'  
2014-Nov-12 21:33N 37°43' E 024°31'1918.7
2014-Nov-12 20:33N 37°27' E 024°18'1918.9
2014-Nov-12 19:32N 37°11' E 024°04'2118.5
2014-Nov-12 18:25N 36°55' E 023°48'2218.6
2014-Nov-12 17:15N 36°38' E 023°31'1919.0
2014-Nov-12 16:15N 36°25' E 023°14'1318.1
2014-Nov-12 15:33N 36°24' E 022°58'2618.1
2014-Nov-12 14:06N 36°22' E 022°26'  
Track history (hours):
 
Tides and Currents Weather Stations Pressure Air Temp Water Temp Dewpoint Dewpoint Depression Visibility Wind Speed Wind Dir Waves Ship Positions

Cuneyt Solakoglu

Last reported at 2014-Nov-19 16:17 UTC. Time now 2014-Nov-21 02:37 UTC.
Position N 37°46' E 024°33'.

Length 193 m; draft 6.3 m.

Type: Ship (hazmat cat A). MMSI: 271002676.

Date/timePositionNaut miles runAvg speedWind from/ knotsBaromVisibWave heightAir tempDewpointWater temp
2014-Nov-19 16:17N 37°46' E 024°33'1520.2
2014-Nov-19 15:34N 37°33' E 024°24'2120.6
2014-Nov-19 14:33N 37°17' E 024°08'2119.9
2014-Nov-19 13:30N 37°00' E 023°52'1919.8
2014-Nov-19 12:34N 36°45' E 023°39'3919.1
2014-Nov-19 10:32N 36°25' E 022°58'2419.6
2014-Nov-19 09:19N 36°21' E 022°29'  
2014-Nov-15 16:18N 36°37' E 023°22'1520.1
2014-Nov-15 15:33N 36°50' E 023°32'2319.8
2014-Nov-15 14:24N 37°09' E 023°47'1720.2
2014-Nov-15 13:33N 37°23' E 023°60'3020.4
2014-Nov-15 12:04N 37°47' E 024°23'1020.3
2014-Nov-15 11:33N 37°55' E 024°32'2220.5
2014-Nov-15 10:29N 38°13' E 024°48'  
2014-Nov-12 21:33N 37°43' E 024°31'1918.7
2014-Nov-12 20:33N 37°27' E 024°18'1918.9
2014-Nov-12 19:32N 37°11' E 024°04'2118.5
2014-Nov-12 18:25N 36°55' E 023°48'2218.6
2014-Nov-12 17:15N 36°38' E 023°31'1919.0
2014-Nov-12 16:15N 36°25' E 023°14'1318.1
2014-Nov-12 15:33N 36°24' E 022°58'2618.1
2014-Nov-12 14:06N 36°22' E 022°26'  

Dump ship's entire track history